createdAt,value
2022-11-11T00:00:48.763Z,576.53
2022-11-11T00:03:34.347Z,564.67
2022-11-11T00:06:19.637Z,558.60
2022-11-11T00:09:04.877Z,537.80
2022-11-11T00:11:50.130Z,541.80
2022-11-11T00:14:35.334Z,540.50
2022-11-11T00:17:39.293Z,504.70
2022-11-11T00:20:44.797Z,470.77
2022-11-11T00:23:48.922Z,480.02
2022-11-11T00:26:39.749Z,485.17
2022-11-11T00:29:25.784Z,464.90
2022-11-11T00:32:23.233Z,486.02
2022-11-11T00:35:28.049Z,475.48
2022-11-11T00:38:33.717Z,465.20
2022-11-11T00:41:21.384Z,483.27
2022-11-11T00:44:06.864Z,448.45
2022-11-11T00:47:10.892Z,467.98
2022-11-11T00:50:14.676Z,465.40
2022-11-11T00:52:59.919Z,457.85
2022-11-11T00:55:45.309Z,452.42
2022-11-11T00:58:30.865Z,453.80
2022-11-11T01:01:16.781Z,459.40
2022-11-11T01:04:02.167Z,474.47
2022-11-11T01:06:47.694Z,486.48
2022-11-11T01:09:32.745Z,458.25
2022-11-11T01:12:18.055Z,466.52
2022-11-11T01:15:03.406Z,481.00
2022-11-11T01:17:48.581Z,482.35
2022-11-11T01:20:34.172Z,491.20
2022-11-11T01:23:19.205Z,483.48
2022-11-11T01:26:07.726Z,487.60
2022-11-11T01:28:55.263Z,467.60
2022-11-11T01:31:40.590Z,471.30
2022-11-11T01:34:27.636Z,476.40
2022-11-11T01:37:12.667Z,494.25
2022-11-11T01:39:58.452Z,487.63
2022-11-11T01:43:14.377Z,511.10
2022-11-11T01:46:03.631Z,511.60
2022-11-11T01:49:10.128Z,492.77
2022-11-11T01:52:01.010Z,485.00
2022-11-11T01:54:46.369Z,475.42
2022-11-11T01:57:40.532Z,478.77
2022-11-11T02:00:25.858Z,499.08
2022-11-11T02:03:13.482Z,495.73
2022-11-11T02:05:58.747Z,495.45
2022-11-11T02:08:44.573Z,504.05
2022-11-11T02:11:50.516Z,470.13
2022-11-11T02:14:42.964Z,490.45
2022-11-11T02:17:31.158Z,544.73
2022-11-11T02:20:23.028Z,546.40
2022-11-11T02:23:14.956Z,497.45
2022-11-11T02:26:02.756Z,486.33
2022-11-11T02:28:48.273Z,480.05
2022-11-11T02:31:33.829Z,508.95
2022-11-11T02:34:18.981Z,504.25
2022-11-11T02:37:07.918Z,470.25
2022-11-11T02:40:05.069Z,489.20
2022-11-11T02:42:50.693Z,507.10
2022-11-11T02:45:36.051Z,490.08
2022-11-11T02:48:22.177Z,472.47
2022-11-11T02:51:08.921Z,501.42
2022-11-11T02:53:58.927Z,482.58
2022-11-11T02:57:03.221Z,520.03
2022-11-11T02:59:48.719Z,495.53
2022-11-11T03:02:34.243Z,486.85
2022-11-11T03:05:19.443Z,516.40
2022-11-11T03:08:05.930Z,509.77
2022-11-11T03:10:51.113Z,506.58
2022-11-11T03:13:36.390Z,515.90
2022-11-11T03:16:40.332Z,565.13
2022-11-11T03:19:25.367Z,611.57
2022-11-11T03:25:34.981Z,509.92
2022-11-11T03:28:21.514Z,509.50
2022-11-11T03:31:06.616Z,505.00
2022-11-11T03:33:52.009Z,533.63
2022-11-11T03:36:55.928Z,511.85
2022-11-11T03:39:41.377Z,501.17
2022-11-11T03:42:26.483Z,465.25
2022-11-11T03:45:11.724Z,495.13
2022-11-11T03:47:57.282Z,492.35
2022-11-11T03:50:42.409Z,508.42
2022-11-11T03:53:27.848Z,488.52
2022-11-11T03:56:12.775Z,502.55
2022-11-11T03:58:58.165Z,493.20
2022-11-11T04:02:02.436Z,476.75
2022-11-11T04:05:06.023Z,521.33
2022-11-11T04:08:10.124Z,487.70
2022-11-11T04:10:56.336Z,553.72
2022-11-11T04:14:04.856Z,560.03
2022-11-11T04:16:50.471Z,568.45
2022-11-11T04:19:54.205Z,556.10
2022-11-11T04:22:41.810Z,542.90
2022-11-11T04:25:45.369Z,545.53
2022-11-11T04:28:49.080Z,527.05
2022-11-11T04:31:34.445Z,518.33
2022-11-11T04:34:19.782Z,529.88
2022-11-11T04:37:04.919Z,507.83
2022-11-11T04:40:09.337Z,501.73
2022-11-11T04:42:54.731Z,610.35
2022-11-11T04:45:39.779Z,612.03
2022-11-11T04:48:25.312Z,575.50
2022-11-11T04:51:10.320Z,528.63
2022-11-11T04:53:55.673Z,524.23
2022-11-11T04:56:50.507Z,516.13
2022-11-11T04:59:35.911Z,526.47
2022-11-11T05:02:39.666Z,514.65
2022-11-11T05:05:28.224Z,504.83
2022-11-11T05:08:32.127Z,536.22
2022-11-11T05:11:17.607Z,509.58
2022-11-11T05:14:25.549Z,535.17
2022-11-11T05:17:29.310Z,491.75
2022-11-11T05:20:38.549Z,522.03
2022-11-11T05:23:43.929Z,488.60
2022-11-11T05:26:31.985Z,504.73
2022-11-11T05:29:17.391Z,508.73
2022-11-11T05:32:02.664Z,503.25
2022-11-11T05:34:48.545Z,504.67
2022-11-11T05:37:33.983Z,564.88
2022-11-11T05:40:18.946Z,560.03
2022-11-11T05:43:04.170Z,555.80
2022-11-11T05:45:49.271Z,499.40
2022-11-11T05:48:34.435Z,478.25
2022-11-11T05:51:28.150Z,507.23
2022-11-11T05:54:14.705Z,511.35
2022-11-11T05:57:00.633Z,523.92
2022-11-11T05:59:45.836Z,560.70
2022-11-11T06:02:30.916Z,535.25
2022-11-11T06:05:16.289Z,515.55
2022-11-11T06:08:01.658Z,561.70
2022-11-11T06:10:46.993Z,582.75
2022-11-11T06:13:32.261Z,523.85
2022-11-11T06:16:17.715Z,556.92
2022-11-11T06:19:04.299Z,560.15
2022-11-11T06:21:58.752Z,541.65
2022-11-11T06:25:04.042Z,601.65
2022-11-11T06:27:49.101Z,538.73
2022-11-11T06:30:49.672Z,590.72
2022-11-11T06:33:37.652Z,520.33
2022-11-11T06:36:22.698Z,480.17
2022-11-11T06:39:08.345Z,506.10
2022-11-11T06:41:53.802Z,512.17
2022-11-11T06:44:39.139Z,497.73
2022-11-11T06:47:24.430Z,490.95
2022-11-11T06:50:10.188Z,545.70
2022-11-11T06:52:58.284Z,522.10
2022-11-11T06:55:44.000Z,491.85
2022-11-11T06:58:28.982Z,515.65
2022-11-11T07:01:14.767Z,532.42
2022-11-11T07:04:00.114Z,536.40
2022-11-11T07:06:45.381Z,533.45
2022-11-11T07:09:30.772Z,546.63
2022-11-11T07:12:16.451Z,529.72
2022-11-11T07:15:01.519Z,525.05
2022-11-11T07:17:46.713Z,506.48
2022-11-11T07:20:32.347Z,523.58
2022-11-11T07:23:18.047Z,525.00
2022-11-11T07:26:03.561Z,527.80
2022-11-11T07:28:50.832Z,524.10
2022-11-11T07:31:36.091Z,541.08
2022-11-11T07:34:21.594Z,523.58
2022-11-11T07:37:06.855Z,529.57
2022-11-11T07:39:51.837Z,520.28
2022-11-11T07:42:38.334Z,541.85
2022-11-11T07:45:26.503Z,502.45
2022-11-11T07:48:14.342Z,523.53
2022-11-11T07:50:59.754Z,516.50
2022-11-11T07:53:44.808Z,474.43
2022-11-11T07:56:33.415Z,500.45
2022-11-11T07:59:19.104Z,503.02
2022-11-11T08:02:04.600Z,547.93
2022-11-11T08:04:54.785Z,584.63
2022-11-11T08:07:42.760Z,496.42
2022-11-11T08:10:28.512Z,519.17
2022-11-11T08:13:32.564Z,532.30
2022-11-11T08:16:17.862Z,500.17
2022-11-11T08:19:06.077Z,526.83
2022-11-11T08:21:52.224Z,495.20
2022-11-11T08:25:02.880Z,497.75
2022-11-11T08:27:42.793Z,518.53
2022-11-11T08:30:28.682Z,497.08
2022-11-11T08:36:21.187Z,520.58
2022-11-11T08:39:07.081Z,490.30
2022-11-11T08:41:54.390Z,497.38
2022-11-11T08:44:41.946Z,502.23
2022-11-11T08:47:27.274Z,517.75
2022-11-11T08:50:12.193Z,514.38
2022-11-11T08:52:57.719Z,502.20
2022-11-11T08:55:43.370Z,511.70
2022-11-11T08:58:29.028Z,516.47
2022-11-11T09:01:14.621Z,531.60
2022-11-11T09:04:06.711Z,523.30
2022-11-11T09:07:01.832Z,523.22
2022-11-11T09:09:47.240Z,540.50
2022-11-11T09:12:32.423Z,511.70
2022-11-11T09:15:17.926Z,527.97
2022-11-11T09:18:03.848Z,545.85
2022-11-11T09:20:49.339Z,522.83
2022-11-11T09:23:34.856Z,540.33
2022-11-11T09:26:21.654Z,548.95
2022-11-11T09:29:07.020Z,525.95
2022-11-11T09:31:52.416Z,524.42
2022-11-11T09:34:37.754Z,529.63
2022-11-11T09:37:23.012Z,510.45
2022-11-11T09:40:16.325Z,522.28
2022-11-11T09:43:23.864Z,511.95
2022-11-11T09:46:18.206Z,518.10
2022-11-11T09:49:15.394Z,504.08
2022-11-11T09:52:17.872Z,514.17
2022-11-11T09:55:41.948Z,511.02
2022-11-11T09:58:30.096Z,516.42
2022-11-11T10:01:26.341Z,517.60
2022-11-11T10:04:25.550Z,507.17
2022-11-11T10:07:26.335Z,521.30
2022-11-11T10:10:33.459Z,528.58
2022-11-11T10:13:31.571Z,525.95
2022-11-11T10:16:42.882Z,525.90
2022-11-11T10:19:35.823Z,516.67
2022-11-11T10:22:38.491Z,517.70
2022-11-11T10:25:25.863Z,518.70
2022-11-11T10:28:17.852Z,499.33
2022-11-11T10:31:09.675Z,510.58
2022-11-11T10:34:00.709Z,535.85
2022-11-11T10:36:54.354Z,530.07
2022-11-11T10:40:25.279Z,532.78
2022-11-11T10:43:24.845Z,524.08
2022-11-11T10:46:22.545Z,505.90
2022-11-11T11:07:22.176Z,511.17
2022-11-11T11:10:15.889Z,580.33
2022-11-11T11:13:07.791Z,508.88
2022-11-11T11:16:07.537Z,517.83
2022-11-11T11:19:19.258Z,521.77
2022-11-11T11:22:07.288Z,533.22
2022-11-11T11:25:13.294Z,501.03
2022-11-11T11:28:13.364Z,520.58
2022-11-11T11:31:00.102Z,526.72
2022-11-11T11:33:55.116Z,544.33
2022-11-11T11:36:40.324Z,538.90
2022-11-11T11:39:41.586Z,501.90
2022-11-11T11:42:38.278Z,526.72
2022-11-11T11:45:25.569Z,528.07
2022-11-11T11:48:37.480Z,538.13
2022-11-11T11:52:00.686Z,531.40
2022-11-11T11:54:52.407Z,535.70
2022-11-11T11:57:53.069Z,499.17
2022-11-11T12:01:02.874Z,533.90
2022-11-11T12:04:10.875Z,521.13
2022-11-11T12:07:14.311Z,498.45
2022-11-11T12:10:24.279Z,505.75
2022-11-11T12:13:28.250Z,501.75
2022-11-11T12:16:39.426Z,517.03
2022-11-11T12:19:57.741Z,524.35
2022-11-11T12:22:46.069Z,509.77
2022-11-11T12:25:54.006Z,509.00
2022-11-11T12:29:06.599Z,514.53
2022-11-11T12:32:29.149Z,513.90
2022-11-11T12:35:39.200Z,520.75
2022-11-11T12:38:56.976Z,561.80
2022-11-11T12:42:06.376Z,514.22
2022-11-11T12:45:05.817Z,510.07
2022-11-11T12:48:33.116Z,536.25
2022-11-11T12:51:37.296Z,516.97
2022-11-11T12:54:55.659Z,513.70
2022-11-11T12:57:58.707Z,526.08
2022-11-11T13:01:12.835Z,546.05
2022-11-11T13:04:22.749Z,524.75
2022-11-11T13:07:16.902Z,532.65
2022-11-11T13:10:20.839Z,511.30
2022-11-11T13:13:26.128Z,492.30
2022-11-11T13:16:12.431Z,504.90
2022-11-11T13:19:10.825Z,508.08
2022-11-11T13:22:07.089Z,500.95
2022-11-11T13:24:54.437Z,545.55
2022-11-11T13:27:50.426Z,551.88
2022-11-11T13:30:38.485Z,575.92
2022-11-11T13:33:42.040Z,560.45
2022-11-11T13:36:30.387Z,557.85
2022-11-11T13:39:32.434Z,559.27
2022-11-11T13:42:25.025Z,519.05
2022-11-11T13:45:31.724Z,535.15
2022-11-11T13:48:27.720Z,536.88
2022-11-11T13:51:18.999Z,544.72
2022-11-11T13:54:07.668Z,522.83
2022-11-11T13:57:01.165Z,525.78
2022-11-11T14:00:05.747Z,534.47
2022-11-11T14:03:22.650Z,540.13
2022-11-11T14:06:14.256Z,532.95
2022-11-11T14:49:09.153Z,577.72
2022-11-11T14:55:19.583Z,580.67
2022-11-11T14:58:10.224Z,591.60
2022-11-11T15:01:10.223Z,543.10
2022-11-11T15:04:01.930Z,522.60
2022-11-11T15:06:58.562Z,544.75
2022-11-11T15:10:09.670Z,528.27
2022-11-11T15:13:27.477Z,528.67
2022-11-11T15:16:59.742Z,526.20
2022-11-11T15:20:07.798Z,539.17
2022-11-11T15:23:32.211Z,541.03
2022-11-11T15:26:41.996Z,520.13
2022-11-11T15:29:45.905Z,545.08
2022-11-11T16:37:22.630Z,539.55
2022-11-11T16:40:26.785Z,521.38
2022-11-11T16:43:26.304Z,529.55
2022-11-11T16:46:28.672Z,536.83
2022-11-11T16:49:26.008Z,538.80
2022-11-11T16:52:22.846Z,530.25
2022-11-11T16:55:11.353Z,533.20
2022-11-11T16:58:10.966Z,532.97
2022-11-11T17:01:02.449Z,531.30
2022-11-11T17:03:59.472Z,522.50
2022-11-11T17:06:48.021Z,512.37
2022-11-11T17:09:41.393Z,524.80
2022-11-11T17:12:34.665Z,504.02
2022-11-11T17:15:22.004Z,503.55
2022-11-11T17:18:11.889Z,480.65
2022-11-11T17:20:57.649Z,493.95
2022-11-11T17:23:43.128Z,497.52
2022-11-11T17:26:28.363Z,495.95
2022-11-11T17:29:14.369Z,509.08
2022-11-11T17:32:02.835Z,499.90
2022-11-11T17:34:48.297Z,494.13
2022-11-11T17:37:40.014Z,503.40
2022-11-11T17:40:25.172Z,496.20
2022-11-11T17:43:10.270Z,476.60
2022-11-11T17:45:56.211Z,463.05
2022-11-11T17:48:41.352Z,478.73
2022-11-11T17:51:26.743Z,465.40
2022-11-11T17:54:14.587Z,459.50
2022-11-11T17:57:07.035Z,454.65
2022-11-11T17:59:54.852Z,463.50
2022-11-11T18:02:39.866Z,464.50
2022-11-11T18:05:25.253Z,467.00
2022-11-11T18:08:10.568Z,472.45
2022-11-11T18:11:03.593Z,466.98
2022-11-11T18:13:49.139Z,457.48
2022-11-11T18:16:34.403Z,445.25
2022-11-11T18:19:19.852Z,444.15
2022-11-11T18:22:05.368Z,454.53
2022-11-11T18:24:50.656Z,444.10
2022-11-11T18:27:35.923Z,457.93
2022-11-11T18:30:21.998Z,472.35
2022-11-11T18:33:07.123Z,473.05
2022-11-11T18:35:55.337Z,443.83
2022-11-11T18:38:48.203Z,458.65
2022-11-11T18:41:33.593Z,459.65
2022-11-11T18:44:18.952Z,460.40
2022-11-11T18:47:04.204Z,456.30
2022-11-11T18:49:49.447Z,447.58
2022-11-11T18:52:34.821Z,451.08
2022-11-11T18:55:20.101Z,452.65
2022-11-11T18:58:05.498Z,458.35
2022-11-11T19:00:50.618Z,439.50
2022-11-11T19:03:37.308Z,454.23
2022-11-11T19:06:22.382Z,436.98
2022-11-11T19:09:10.264Z,420.37
2022-11-11T19:11:55.628Z,444.40
2022-11-11T19:14:41.008Z,445.08
2022-11-11T19:17:26.139Z,438.10
2022-11-11T19:20:11.639Z,454.85
2022-11-11T19:22:56.654Z,470.08
2022-11-11T19:25:42.025Z,460.73
2022-11-11T19:28:27.373Z,464.70
2022-11-11T19:31:15.547Z,467.58
2022-11-11T19:34:00.781Z,452.65
2022-11-11T19:36:46.032Z,477.75
2022-11-11T19:39:31.354Z,500.55
2022-11-11T19:42:16.764Z,492.98
2022-11-11T19:45:02.762Z,471.37
2022-11-11T19:47:51.000Z,474.35
2022-11-11T19:50:36.405Z,473.02
2022-11-11T19:53:21.770Z,450.15
2022-11-11T19:56:11.024Z,476.13
2022-11-11T19:58:56.150Z,479.40
2022-11-11T20:01:41.561Z,487.15
2022-11-11T20:04:29.491Z,479.42
2022-11-11T20:07:14.483Z,453.85
2022-11-11T20:09:59.847Z,465.27
2022-11-11T20:12:45.199Z,460.70
2022-11-11T20:15:30.537Z,452.88
2022-11-11T20:18:16.016Z,474.25
2022-11-11T20:21:09.166Z,487.48
2022-11-11T20:23:58.873Z,514.30
2022-11-11T20:26:45.284Z,494.95
2022-11-11T20:29:31.884Z,504.48
2022-11-11T20:32:17.706Z,520.97
2022-11-11T20:35:02.711Z,526.75
2022-11-11T20:37:48.120Z,531.35
2022-11-11T20:40:33.331Z,512.63
2022-11-11T20:43:18.644Z,499.53
2022-11-11T20:46:07.007Z,486.38
2022-11-11T20:48:52.447Z,491.00
2022-11-11T20:51:37.379Z,483.27
2022-11-11T20:54:22.543Z,471.73
2022-11-11T20:57:08.082Z,471.10
2022-11-11T20:59:53.462Z,480.08
2022-11-11T21:02:40.644Z,504.60
2022-11-11T21:05:28.915Z,487.85
2022-11-11T21:08:16.005Z,465.92
2022-11-11T21:11:02.161Z,468.13
2022-11-11T21:13:48.064Z,475.92
2022-11-11T21:16:33.348Z,484.33
2022-11-11T21:19:18.501Z,487.75
2022-11-11T21:22:08.879Z,475.13
2022-11-11T21:24:55.320Z,471.40
2022-11-11T21:27:40.759Z,460.40
2022-11-11T21:30:26.074Z,465.27
2022-11-11T21:33:11.385Z,463.13
2022-11-11T21:36:08.330Z,470.27
2022-11-11T21:38:53.326Z,459.73
2022-11-11T21:41:41.083Z,472.20
2022-11-11T21:44:26.254Z,466.65
2022-11-11T21:47:12.635Z,460.48
2022-11-11T21:49:57.916Z,465.40
2022-11-11T21:52:43.154Z,462.33
2022-11-11T21:55:28.518Z,459.43
2022-11-11T21:58:16.322Z,465.63
2022-11-11T22:01:09.797Z,474.53
2022-11-11T22:04:00.411Z,470.63
2022-11-11T22:06:45.814Z,482.25
2022-11-11T22:09:31.057Z,475.67
2022-11-11T22:12:16.427Z,464.67
2022-11-11T22:15:01.659Z,471.55
2022-11-11T22:17:46.936Z,468.45
2022-11-11T22:20:32.333Z,471.67
2022-11-11T22:23:17.890Z,469.52
2022-11-11T22:26:10.568Z,457.23
2022-11-11T22:28:55.592Z,464.88
2022-11-11T22:31:44.503Z,461.92
2022-11-11T22:34:29.914Z,461.83
2022-11-11T22:37:15.868Z,466.70
2022-11-11T22:40:00.961Z,448.77
2022-11-11T22:42:46.212Z,450.00
2022-11-11T22:45:32.896Z,442.95
2022-11-11T22:48:20.539Z,454.33
2022-11-11T22:51:19.747Z,448.63
2022-11-11T22:54:06.591Z,445.00
2022-11-11T22:56:52.109Z,433.73
2022-11-11T22:59:42.147Z,424.25
2022-11-11T23:02:27.374Z,418.17
2022-11-11T23:05:15.121Z,429.83
2022-11-11T23:08:00.371Z,422.08
2022-11-11T23:10:51.405Z,416.83
2022-11-11T23:13:41.411Z,420.07
2022-11-11T23:16:29.529Z,417.45
2022-11-11T23:19:22.794Z,418.90
2022-11-11T23:22:16.154Z,411.70
2022-11-11T23:25:07.024Z,430.90
2022-11-11T23:27:52.209Z,438.27
2022-11-11T23:30:37.435Z,435.55
2022-11-11T23:33:28.027Z,440.50
2022-11-11T23:36:17.516Z,446.52
2022-11-11T23:39:03.742Z,437.52
2022-11-11T23:41:48.807Z,443.02
2022-11-11T23:44:33.968Z,453.38
2022-11-11T23:47:19.419Z,443.83
2022-11-11T23:50:04.979Z,433.63
2022-11-11T23:52:50.048Z,447.30
2022-11-11T23:55:35.249Z,449.75
2022-11-11T23:58:20.392Z,447.73
